sensor_id;sensor_type;location;lat;lon;timestamp;pressure;altitude;pressure_sealevel;temperature;humidity
9187;BME280;7273;48.902;9.410;2023-02-12T00:00:33;100001.22;;;5.76;69.88
9187;BME280;7273;48.902;9.410;2023-02-12T00:02:58;100005.00;;;5.82;69.76
9187;BME280;7273;48.902;9.410;2023-02-12T00:05:24;100010.34;;;5.82;69.40
9187;BME280;7273;48.902;9.410;2023-02-12T00:07:49;100014.72;;;5.83;69.63
9187;BME280;7273;48.902;9.410;2023-02-12T00:10:14;100010.34;;;5.82;69.38
9187;BME280;7273;48.902;9.410;2023-02-12T00:12:40;100012.03;;;5.83;69.65
9187;BME280;7273;48.902;9.410;2023-02-12T00:15:06;100022.34;;;5.79;69.89
9187;BME280;7273;48.902;9.410;2023-02-12T00:17:31;100019.22;;;5.76;69.68
9187;BME280;7273;48.902;9.410;2023-02-12T00:19:57;100015.66;;;5.69;69.59
9187;BME280;7273;48.902;9.410;2023-02-12T00:22:22;100017.50;;;5.68;70.10
9187;BME280;7273;48.902;9.410;2023-02-12T00:24:47;100010.25;;;5.62;70.02
9187;BME280;7273;48.902;9.410;2023-02-12T00:27:13;100005.50;;;5.64;70.10
9187;BME280;7273;48.902;9.410;2023-02-12T00:29:38;100010.47;;;5.67;70.16
9187;BME280;7273;48.902;9.410;2023-02-12T00:32:04;100011.94;;;5.70;69.68
9187;BME280;7273;48.902;9.410;2023-02-12T00:34:30;100005.75;;;5.69;69.79
9187;BME280;7273;48.902;9.410;2023-02-12T00:36:55;100015.00;;;5.67;69.81
9187;BME280;7273;48.902;9.410;2023-02-12T00:39:20;100018.72;;;5.66;70.30
9187;BME280;7273;48.902;9.410;2023-02-12T00:41:46;100012.31;;;5.67;70.10
9187;BME280;7273;48.902;9.410;2023-02-12T00:44:12;100010.47;;;5.67;70.01
9187;BME280;7273;48.902;9.410;2023-02-12T00:46:37;100014.56;;;5.63;69.99
9187;BME280;7273;48.902;9.410;2023-02-12T00:49:02;100019.56;;;5.66;70.27
9187;BME280;7273;48.902;9.410;2023-02-12T00:51:28;100023.69;;;5.69;70.10
9187;BME280;7273;48.902;9.410;2023-02-12T00:53:53;100026.19;;;5.70;69.85
9187;BME280;7273;48.902;9.410;2023-02-12T00:56:19;100016.88;;;5.66;69.95
9187;BME280;7273;48.902;9.410;2023-02-12T00:58:44;100014.56;;;5.63;70.06
9187;BME280;7273;48.902;9.410;2023-02-12T01:01:10;100023.84;;;5.61;69.95
9187;BME280;7273;48.902;9.410;2023-02-12T01:03:35;100026.34;;;5.62;70.42
9187;BME280;7273;48.902;9.410;2023-02-12T01:06:01;100022.63;;;5.63;69.81
9187;BME280;7273;48.902;9.410;2023-02-12T01:08:27;100022.41;;;5.58;70.41
9187;BME280;7273;48.902;9.410;2023-02-12T01:10:57;100024.84;;;5.53;70.44
9187;BME280;7273;48.902;9.410;2023-02-12T01:13:23;100022.94;;;5.47;70.44
9187;BME280;7273;48.902;9.410;2023-02-12T01:15:59;100015.31;;;5.50;70.69
9187;BME280;7273;48.902;9.410;2023-02-12T01:18:24;100014.31;;;5.52;71.19
9187;BME280;7273;48.902;9.410;2023-02-12T01:20:50;100015.31;;;5.50;70.70
9187;BME280;7273;48.902;9.410;2023-02-12T01:23:15;100010.78;;;5.51;70.19
9187;BME280;7273;48.902;9.410;2023-02-12T01:25:41;100010.78;;;5.51;70.56
9187;BME280;7273;48.902;9.410;2023-02-12T01:28:09;100023.56;;;5.49;70.19
9187;BME280;7273;48.902;9.410;2023-02-12T01:30:34;100020.50;;;5.52;70.39
9187;BME280;7273;48.902;9.410;2023-02-12T01:33:00;100008.09;;;5.51;70.42
9187;BME280;7273;48.902;9.410;2023-02-12T01:35:25;100015.13;;;5.52;70.22
9187;BME280;7273;48.902;9.410;2023-02-12T01:37:51;100008.75;;;5.53;70.12
9187;BME280;7273;48.902;9.410;2023-02-12T01:40:16;100008.31;;;5.49;70.27
9187;BME280;7273;48.902;9.410;2023-02-12T01:42:42;100001.69;;;5.52;70.72
9187;BME280;7273;48.902;9.410;2023-02-12T01:47:41;100005.03;;;5.54;70.54
9187;BME280;7273;48.902;9.410;2023-02-12T01:50:10;100007.94;;;5.59;70.28
9187;BME280;7273;48.902;9.410;2023-02-12T01:52:37;100018.50;;;5.61;70.20
9187;BME280;7273;48.902;9.410;2023-02-12T01:55:06;100011.28;;;5.61;70.17
9187;BME280;7273;48.902;9.410;2023-02-12T01:57:36;100010.19;;;5.56;70.54
9187;BME280;7273;48.902;9.410;2023-02-12T02:00:07;100005.47;;;5.58;70.67
9187;BME280;7273;48.902;9.410;2023-02-12T02:02:33;100007.72;;;5.54;70.79
9187;BME280;7273;48.902;9.410;2023-02-12T02:05:02;100006.66;;;5.55;70.65
9187;BME280;7273;48.902;9.410;2023-02-12T02:07:28;100004.63;;;5.57;70.28
9187;BME280;7273;48.902;9.410;2023-02-12T02:09:55;100002.78;;;5.58;70.56
9187;BME280;7273;48.902;9.410;2023-02-12T02:12:21;99994.94;;;5.56;70.60
9187;BME280;7273;48.902;9.410;2023-02-12T02:15:05;99995.94;;;5.55;70.47
9187;BME280;7273;48.902;9.410;2023-02-12T02:17:43;99998.44;;;5.57;70.76
9187;BME280;7273;48.902;9.410;2023-02-12T02:31:40;99983.97;;;5.51;70.50
9187;BME280;7273;48.902;9.410;2023-02-12T02:37:19;99983.63;;;5.33;70.94
9187;BME280;7273;48.902;9.410;2023-02-12T02:39:52;99981.59;;;5.35;70.89
9187;BME280;7273;48.902;9.410;2023-02-12T02:42:29;99982.84;;;5.39;71.03
9187;BME280;7273;48.902;9.410;2023-02-12T02:45:03;99977.47;;;5.39;70.70
9187;BME280;7273;48.902;9.410;2023-02-12T02:47:39;99980.31;;;5.31;71.20
9187;BME280;7273;48.902;9.410;2023-02-12T02:50:09;99988.78;;;5.34;71.01
9187;BME280;7273;48.902;9.410;2023-02-12T02:52:43;99993.06;;;5.29;71.08
9187;BME280;7273;48.902;9.410;2023-02-12T02:55:12;99985.06;;;5.35;71.15
9187;BME280;7273;48.902;9.410;2023-02-12T02:57:46;99990.69;;;5.40;71.18
9187;BME280;7273;48.902;9.410;2023-02-12T03:00:32;99984.88;;;5.37;71.04
9187;BME280;7273;48.902;9.410;2023-02-12T03:03:04;99991.91;;;5.38;70.83
9187;BME280;7273;48.902;9.410;2023-02-12T03:05:36;99987.38;;;5.38;71.10
9187;BME280;7273;48.902;9.410;2023-02-12T03:08:42;99983.47;;;5.41;71.23
9187;BME280;7273;48.902;9.410;2023-02-12T03:11:14;99991.09;;;5.37;70.83
9187;BME280;7273;48.902;9.410;2023-02-12T03:14:12;99981.19;;;5.38;71.35
9187;BME280;7273;48.902;9.410;2023-02-12T03:19:20;99987.59;;;5.43;71.18
9187;BME280;7273;48.902;9.410;2023-02-12T03:22:00;99989.09;;;5.46;70.91
9187;BME280;7273;48.902;9.410;2023-02-12T03:24:33;99996.50;;;5.44;71.02
9187;BME280;7273;48.902;9.410;2023-02-12T03:27:18;100000.00;;;5.44;70.99
9187;BME280;7273;48.902;9.410;2023-02-12T03:29:45;99996.88;;;5.41;70.70
9187;BME280;7273;48.902;9.410;2023-02-12T03:32:25;99999.56;;;5.41;71.06
9187;BME280;7273;48.902;9.410;2023-02-12T03:37:53;99991.91;;;5.38;71.36
9187;BME280;7273;48.902;9.410;2023-02-12T03:43:02;99995.00;;;5.35;71.53
9187;BME280;7273;48.902;9.410;2023-02-12T03:45:33;99998.03;;;5.32;71.26
9187;BME280;7273;48.902;9.410;2023-02-12T03:50:52;100000.31;;;5.28;71.24
9187;BME280;7273;48.902;9.410;2023-02-12T03:53:20;100004.19;;;5.26;71.60
9187;BME280;7273;48.902;9.410;2023-02-12T03:55:48;100004.84;;;5.28;71.43
9187;BME280;7273;48.902;9.410;2023-02-12T03:58:20;100005.47;;;5.30;71.57
9187;BME280;7273;48.902;9.410;2023-02-12T04:00:47;100010.78;;;5.23;71.50
9187;BME280;7273;48.902;9.410;2023-02-12T04:03:14;100004.34;;;5.18;71.78
9187;BME280;7273;48.902;9.410;2023-02-12T04:05:39;100008.56;;;5.27;71.86
9187;BME280;7273;48.902;9.410;2023-02-12T04:08:07;100007.53;;;5.28;71.18
9187;BME280;7273;48.902;9.410;2023-02-12T04:13:11;100012.69;;;5.29;71.59
9187;BME280;7273;48.902;9.410;2023-02-12T04:18:25;100026.69;;;5.25;71.85
9187;BME280;7273;48.902;9.410;2023-02-12T04:21:12;100026.69;;;5.25;71.32
9187;BME280;7273;48.902;9.410;2023-02-12T04:26:22;100024.53;;;5.14;71.89
9187;BME280;7273;48.902;9.410;2023-02-12T04:31:34;100030.72;;;5.14;71.62
9187;BME280;7273;48.902;9.410;2023-02-12T04:36:57;100026.88;;;5.23;71.68
9187;BME280;7273;48.902;9.410;2023-02-12T04:39:26;100026.06;;;5.23;71.52
9187;BME280;7273;48.902;9.410;2023-02-12T04:41:53;100026.25;;;5.21;71.62
9187;BME280;7273;48.902;9.410;2023-02-12T04:44:23;100026.69;;;5.25;71.40
9187;BME280;7273;48.902;9.410;2023-02-12T04:46:49;100034.69;;;5.18;71.58
9187;BME280;7273;48.902;9.410;2023-02-12T04:49:17;100027.09;;;5.22;71.58
9187;BME280;7273;48.902;9.410;2023-02-12T04:51:43;100028.72;;;5.23;71.84
9187;BME280;7273;48.902;9.410;2023-02-12T04:54:09;100029.56;;;5.23;71.74
9187;BME280;7273;48.902;9.410;2023-02-12T04:56:34;100026.06;;;5.23;71.77
9187;BME280;7273;48.902;9.410;2023-02-12T04:59:00;100026.25;;;5.21;71.48
9187;BME280;7273;48.902;9.410;2023-02-12T05:01:25;100029.53;;;5.17;71.54
9187;BME280;7273;48.902;9.410;2023-02-12T05:03:51;100027.44;;;5.19;72.09
9187;BME280;7273;48.902;9.410;2023-02-12T05:06:17;100033.44;;;5.21;71.95
9187;BME280;7273;48.902;9.410;2023-02-12T05:08:42;100033.50;;;5.27;72.06
9187;BME280;7273;48.902;9.410;2023-02-12T05:11:09;100022.97;;;5.26;71.98
9187;BME280;7273;48.902;9.410;2023-02-12T05:13:35;100023.63;;;5.28;71.75
9187;BME280;7273;48.902;9.410;2023-02-12T05:16:05;100019.28;;;5.27;71.52
9187;BME280;7273;48.902;9.410;2023-02-12T05:18:32;100019.91;;;5.29;71.58
9187;BME280;7273;48.902;9.410;2023-02-12T05:20:58;100016.78;;;5.25;71.75
9187;BME280;7273;48.902;9.410;2023-02-12T05:23:26;100025.25;;;5.29;71.85
9187;BME280;7273;48.902;9.410;2023-02-12T05:25:53;100018.69;;;5.31;71.75
9187;BME280;7273;48.902;9.410;2023-02-12T05:28:18;100020.28;;;5.26;71.62
9187;BME280;7273;48.902;9.410;2023-02-12T05:30:44;100023.81;;;5.26;71.61
9187;BME280;7273;48.902;9.410;2023-02-12T05:33:09;100019.91;;;5.29;71.41
9187;BME280;7273;48.902;9.410;2023-02-12T05:35:35;100016.59;;;5.27;71.78
9187;BME280;7273;48.902;9.410;2023-02-12T05:38:00;100024.66;;;5.27;71.79
9187;BME280;7273;48.902;9.410;2023-02-12T05:40:26;100028.59;;;5.31;71.61
9187;BME280;7273;48.902;9.410;2023-02-12T05:42:51;100020.69;;;5.23;71.71
9187;BME280;7273;48.902;9.410;2023-02-12T05:45:16;100028.94;;;5.21;71.88
9187;BME280;7273;48.902;9.410;2023-02-12T05:47:42;100029.72;;;5.15;71.89
9187;BME280;7273;48.902;9.410;2023-02-12T05:50:07;100024.59;;;5.20;71.98
9187;BME280;7273;48.902;9.410;2023-02-12T05:52:33;100021.66;;;5.15;72.08
9187;BME280;7273;48.902;9.410;2023-02-12T05:54:58;100025.09;;;5.09;72.29
9187;BME280;7273;48.902;9.410;2023-02-12T05:57:24;100027.38;;;5.12;72.32
9187;BME280;7273;48.902;9.410;2023-02-12T05:59:49;100024.72;;;5.12;71.90
9187;BME280;7273;48.902;9.410;2023-02-12T06:02:15;100030.72;;;5.14;72.02
9187;BME280;7273;48.902;9.410;2023-02-12T06:04:40;100025.09;;;5.09;71.96
9187;BME280;7273;48.902;9.410;2023-02-12T06:07:06;100027.09;;;5.01;72.29
9187;BME280;7273;48.902;9.410;2023-02-12T06:09:34;100031.63;;;5.00;72.42
9187;BME280;7273;48.902;9.410;2023-02-12T06:12:00;100031.25;;;5.03;72.42
9187;BME280;7273;48.902;9.410;2023-02-12T06:14:26;100038.91;;;5.06;72.25
9187;BME280;7273;48.902;9.410;2023-02-12T06:16:51;100027.91;;;5.01;72.13
9187;BME280;7273;48.902;9.410;2023-02-12T06:19:18;100031.38;;;4.95;72.27
9187;BME280;7273;48.902;9.410;2023-02-12T06:21:43;100032.78;;;4.91;72.40
9187;BME280;7273;48.902;9.410;2023-02-12T06:24:14;100036.75;;;4.95;72.18
9187;BME280;7273;48.902;9.410;2023-02-12T06:26:39;100039.81;;;4.92;72.26
9187;BME280;7273;48.902;9.410;2023-02-12T06:29:05;100037.53;;;4.89;72.26
9187;BME280;7273;48.902;9.410;2023-02-12T06:31:32;100031.50;;;4.87;72.33
9187;BME280;7273;48.902;9.410;2023-02-12T06:34:00;100043.63;;;4.83;72.57
9187;BME280;7273;48.902;9.410;2023-02-12T06:36:26;100039.50;;;4.81;72.47
9187;BME280;7273;48.902;9.410;2023-02-12T06:38:52;100045.84;;;4.80;72.64
9187;BME280;7273;48.902;9.410;2023-02-12T06:41:18;100043.44;;;4.85;72.41
9187;BME280;7273;48.902;9.410;2023-02-12T06:43:44;100046.75;;;4.87;72.39
9187;BME280;7273;48.902;9.410;2023-02-12T06:46:10;100050.66;;;4.84;72.44
9187;BME280;7273;48.902;9.410;2023-02-12T06:48:35;100050.66;;;4.84;72.50
9187;BME280;7273;48.902;9.410;2023-02-12T06:51:10;100049.63;;;4.85;72.44
9187;BME280;7273;48.902;9.410;2023-02-12T06:53:36;100051.91;;;4.88;72.88
9187;BME280;7273;48.902;9.410;2023-02-12T06:56:07;100051.47;;;4.85;72.65
9187;BME280;7273;48.902;9.410;2023-02-12T06:58:38;100060.16;;;4.87;72.87
9187;BME280;7273;48.902;9.410;2023-02-12T07:01:24;100062.66;;;4.88;72.52
9187;BME280;7273;48.902;9.410;2023-02-12T07:03:52;100054.66;;;4.95;72.87
9187;BME280;7273;48.902;9.410;2023-02-12T07:06:19;100061.66;;;4.89;72.59
9187;BME280;7273;48.902;9.410;2023-02-12T07:08:45;100066.44;;;4.94;72.89
9187;BME280;7273;48.902;9.410;2023-02-12T07:11:10;100056.97;;;4.98;72.65
9187;BME280;7273;48.902;9.410;2023-02-12T07:13:36;100059.44;;;4.99;73.04
9187;BME280;7273;48.902;9.410;2023-02-12T07:16:06;100055.38;;;5.03;72.79
9187;BME280;7273;48.902;9.410;2023-02-12T07:18:35;100052.88;;;5.02;72.58
9187;BME280;7273;48.902;9.410;2023-02-12T07:21:02;100056.22;;;5.04;72.92
9187;BME280;7273;48.902;9.410;2023-02-12T07:23:28;100060.94;;;5.02;72.90
9187;BME280;7273;48.902;9.410;2023-02-12T07:26:01;100065.06;;;5.04;72.61
9187;BME280;7273;48.902;9.410;2023-02-12T07:28:27;100061.84;;;5.09;72.76
9187;BME280;7273;48.902;9.410;2023-02-12T07:30:53;100066.81;;;5.12;72.70
9187;BME280;7273;48.902;9.410;2023-02-12T07:33:19;100072.81;;;5.14;72.51
9187;BME280;7273;48.902;9.410;2023-02-12T07:35:44;100069.56;;;5.18;72.72
9187;BME280;7273;48.902;9.410;2023-02-12T07:38:10;100078.66;;;5.24;72.50
9187;BME280;7273;48.902;9.410;2023-02-12T07:40:36;100070.25;;;5.27;72.42
9187;BME280;7273;48.902;9.410;2023-02-12T07:43:01;100074.59;;;5.28;72.56
9187;BME280;7273;48.902;9.410;2023-02-12T07:45:27;100065.75;;;5.34;72.30
9187;BME280;7273;48.902;9.410;2023-02-12T07:47:52;100069.28;;;5.34;72.54
9187;BME280;7273;48.902;9.410;2023-02-12T07:50:18;100081.09;;;5.40;72.40
9187;BME280;7273;48.902;9.410;2023-02-12T07:52:43;100078.78;;;5.37;72.33
9187;BME280;7273;48.902;9.410;2023-02-12T07:55:09;100082.34;;;5.44;72.74
9187;BME280;7273;48.902;9.410;2023-02-12T07:57:35;100076.78;;;5.45;72.73
9187;BME280;7273;48.902;9.410;2023-02-12T08:00:00;100076.34;;;5.42;72.36
9187;BME280;7273;48.902;9.410;2023-02-12T08:02:26;100069.59;;;5.46;72.42
9187;BME280;7273;48.902;9.410;2023-02-12T08:04:55;100073.34;;;5.52;72.39
9187;BME280;7273;48.902;9.410;2023-02-12T08:07:21;100079.13;;;5.55;72.66
9187;BME280;7273;48.902;9.410;2023-02-12T08:09:46;100066.34;;;5.57;72.36
9187;BME280;7273;48.902;9.410;2023-02-12T08:12:11;100069.44;;;5.54;72.63
9187;BME280;7273;48.902;9.410;2023-02-12T08:14:37;100076.28;;;5.63;72.56
9187;BME280;7273;48.902;9.410;2023-02-12T08:17:02;100080.03;;;5.62;72.47
9187;BME280;7273;48.902;9.410;2023-02-12T08:19:28;100076.09;;;5.58;72.55
9187;BME280;7273;48.902;9.410;2023-02-12T08:21:54;100078.81;;;5.65;72.84
9187;BME280;7273;48.902;9.410;2023-02-12T08:24:20;100073.81;;;5.62;72.95
9187;BME280;7273;48.902;9.410;2023-02-12T08:26:49;100069.69;;;5.59;72.64
9187;BME280;7273;48.902;9.410;2023-02-12T08:29:18;100076.75;;;5.67;72.67
9187;BME280;7273;48.902;9.410;2023-02-12T08:31:46;100075.34;;;5.71;72.93
9187;BME280;7273;48.902;9.410;2023-02-12T08:34:19;100073.88;;;5.68;72.36
9187;BME280;7273;48.902;9.410;2023-02-12T08:36:46;100074.75;;;5.75;72.92
9187;BME280;7273;48.902;9.410;2023-02-12T08:39:13;100074.31;;;5.72;72.55
9187;BME280;7273;48.902;9.410;2023-02-12T08:41:38;100076.63;;;5.81;72.79
9187;BME280;7273;48.902;9.410;2023-02-12T08:44:06;100075.91;;;5.87;72.74
9187;BME280;7273;48.902;9.410;2023-02-12T08:46:35;100072.63;;;5.92;72.58
9187;BME280;7273;48.902;9.410;2023-02-12T08:49:06;100075.94;;;5.94;72.65
9187;BME280;7273;48.902;9.410;2023-02-12T08:51:35;100074.06;;;5.94;72.47
9187;BME280;7273;48.902;9.410;2023-02-12T08:54:02;100085.06;;;5.99;72.78
9187;BME280;7273;48.902;9.410;2023-02-12T08:56:30;100072.47;;;6.00;72.96
9187;BME280;7273;48.902;9.410;2023-02-12T08:58:57;100086.72;;;6.00;72.68
9187;BME280;7273;48.902;9.410;2023-02-12T09:01:24;100081.41;;;6.07;72.92
9187;BME280;7273;48.902;9.410;2023-02-12T09:03:50;100086.13;;;6.05;72.87
9187;BME280;7273;48.902;9.410;2023-02-12T09:06:18;100084.31;;;6.12;72.65
9187;BME280;7273;48.902;9.410;2023-02-12T09:08:44;100089.13;;;6.23;72.72
9187;BME280;7273;48.902;9.410;2023-02-12T09:11:19;100087.06;;;6.25;72.58
9187;BME280;7273;48.902;9.410;2023-02-12T09:13:46;100083.59;;;6.31;72.72
9187;BME280;7273;48.902;9.410;2023-02-12T09:16:12;100083.41;;;6.39;72.77
9187;BME280;7273;48.902;9.410;2023-02-12T09:18:38;100085.13;;;6.46;72.71
9187;BME280;7273;48.902;9.410;2023-02-12T09:21:10;100076.03;;;6.54;72.28
9187;BME280;7273;48.902;9.410;2023-02-12T09:23:36;100076.28;;;6.65;72.71
9187;BME280;7273;48.902;9.410;2023-02-12T09:26:07;100067.59;;;6.70;72.38
9187;BME280;7273;48.902;9.410;2023-02-12T09:28:34;100070.13;;;6.84;72.35
9187;BME280;7273;48.902;9.410;2023-02-12T09:31:11;100068.09;;;6.93;72.03
9187;BME280;7273;48.902;9.410;2023-02-12T09:33:37;100069.13;;;6.99;72.42
9187;BME280;7273;48.902;9.410;2023-02-12T09:36:07;100064.78;;;7.11;72.64
9187;BME280;7273;48.902;9.410;2023-02-12T09:38:33;100064.22;;;7.22;72.49
9187;BME280;7273;48.902;9.410;2023-02-12T09:46:29;100061.53;;;7.54;72.40
9187;BME280;7273;48.902;9.410;2023-02-12T09:49:14;100063.16;;;7.55;71.67
9187;BME280;7273;48.902;9.410;2023-02-12T09:51:48;100069.16;;;7.70;71.75
9187;BME280;7273;48.902;9.410;2023-02-12T09:54:21;100071.03;;;7.76;71.33
9187;BME280;7273;48.902;9.410;2023-02-12T09:56:51;100075.19;;;7.79;71.75
9187;BME280;7273;48.902;9.410;2023-02-12T09:59:28;100072.47;;;7.85;71.52
9187;BME280;7273;48.902;9.410;2023-02-12T10:01:57;100068.50;;;7.88;71.14
9187;BME280;7273;48.902;9.410;2023-02-12T10:04:23;100074.09;;;7.93;71.39
9187;BME280;7273;48.902;9.410;2023-02-12T10:07:18;100070.16;;;7.95;71.03
9187;BME280;7273;48.902;9.410;2023-02-12T10:10:03;100072.81;;;8.02;70.92
9187;BME280;7273;48.902;9.410;2023-02-12T10:12:54;100071.16;;;8.07;71.24
9187;BME280;7273;48.902;9.410;2023-02-12T10:26:29;100069.72;;;8.25;70.64
9187;BME280;7273;48.902;9.410;2023-02-12T10:29:09;100070.09;;;8.35;70.46
9187;BME280;7273;48.902;9.410;2023-02-12T10:31:40;100065.69;;;8.47;70.44
9187;BME280;7273;48.902;9.410;2023-02-12T10:34:19;100064.66;;;8.48;70.65
9187;BME280;7273;48.902;9.410;2023-02-12T10:36:47;100065.25;;;8.50;70.24
9187;BME280;7273;48.902;9.410;2023-02-12T10:39:28;100064.84;;;8.53;70.43
9187;BME280;7273;48.902;9.410;2023-02-12T10:42:59;100056.50;;;8.61;70.06
9187;BME280;7273;48.902;9.410;2023-02-12T10:44:53;100059.44;;;8.59;70.10
9187;BME280;7273;48.902;9.410;2023-02-12T10:47:20;100066.03;;;8.63;70.05
9187;BME280;7273;48.902;9.410;2023-02-12T10:49:57;100062.91;;;8.66;70.01
9187;BME280;7273;48.902;9.410;2023-02-12T10:52:38;100059.56;;;8.64;69.89
9187;BME280;7273;48.902;9.410;2023-02-12T10:57:56;100049.41;;;8.66;69.92
9187;BME280;7273;48.902;9.410;2023-02-12T11:00:26;100057.06;;;8.69;70.07
9187;BME280;7273;48.902;9.410;2023-02-12T11:05:33;100050.56;;;8.83;69.96
9187;BME280;7273;48.902;9.410;2023-02-12T11:07:59;100050.09;;;8.93;69.65
9187;BME280;7273;48.902;9.410;2023-02-12T11:10:35;100052.34;;;8.96;69.89
9187;BME280;7273;48.902;9.410;2023-02-12T11:13:02;100045.09;;;8.96;69.79
9187;BME280;7273;48.902;9.410;2023-02-12T11:15:37;100041.97;;;8.99;69.98
9187;BME280;7273;48.902;9.410;2023-02-12T11:18:28;100034.47;;;9.01;69.97
9187;BME280;7273;48.902;9.410;2023-02-12T11:21:08;100040.44;;;9.10;69.47
9187;BME280;7273;48.902;9.410;2023-02-12T11:23:39;100032.50;;;9.15;69.85
9187;BME280;7273;48.902;9.410;2023-02-12T11:29:19;100027.44;;;9.25;69.67
9187;BME280;7273;48.902;9.410;2023-02-12T11:32:06;100031.41;;;9.22;70.01
9187;BME280;7273;48.902;9.410;2023-02-12T11:34:36;100029.97;;;9.20;69.81
9187;BME280;7273;48.902;9.410;2023-02-12T11:37:02;100025.47;;;9.38;69.71
9187;BME280;7273;48.902;9.410;2023-02-12T11:39:34;100022.47;;;9.46;69.49
9187;BME280;7273;48.902;9.410;2023-02-12T11:42:21;100032.13;;;9.61;69.69
9187;BME280;7273;48.902;9.410;2023-02-12T11:47:19;100033.06;;;9.91;69.46
9187;BME280;7273;48.902;9.410;2023-02-12T11:49:52;100022.41;;;9.96;69.23
9187;BME280;7273;48.902;9.410;2023-02-12T11:52:23;100023.63;;;10.00;69.21
9187;BME280;7273;48.902;9.410;2023-02-12T11:54:52;100028.25;;;10.17;69.04
9187;BME280;7273;48.902;9.410;2023-02-12T11:57:48;100020.28;;;10.22;68.76
9187;BME280;7273;48.902;9.410;2023-02-12T12:00:27;100035.22;;;10.25;68.80
9187;BME280;7273;48.902;9.410;2023-02-12T12:03:03;100030.25;;;10.22;68.65
9187;BME280;7273;48.902;9.410;2023-02-12T12:05:37;100017.97;;;10.26;68.68
9187;BME280;7273;48.902;9.410;2023-02-12T12:08:13;100019.13;;;10.30;68.51
9187;BME280;7273;48.902;9.410;2023-02-12T12:10:46;100019.06;;;10.18;68.82
9187;BME280;7273;48.902;9.410;2023-02-12T12:13:17;100010.88;;;10.25;68.88
9187;BME280;7273;48.902;9.410;2023-02-12T12:15:50;100007.53;;;10.29;68.92
9187;BME280;7273;48.902;9.410;2023-02-12T12:18:45;100013.88;;;10.17;68.98
9187;BME280;7273;48.902;9.410;2023-02-12T12:21:39;100012.47;;;10.14;68.75
9187;BME280;7273;48.902;9.410;2023-02-12T12:24:15;100010.84;;;10.07;69.30
9187;BME280;7273;48.902;9.410;2023-02-12T12:26:46;100012.13;;;10.04;69.20
9187;BME280;7273;48.902;9.410;2023-02-12T12:29:24;100012.38;;;10.03;69.46
9187;BME280;7273;48.902;9.410;2023-02-12T12:31:58;100017.16;;;10.01;69.51
9187;BME280;7273;48.902;9.410;2023-02-12T12:34:26;100014.25;;;10.02;69.31
9187;BME280;7273;48.902;9.410;2023-02-12T12:56:55;99992.09;;;9.51;70.08
9187;BME280;7273;48.902;9.410;2023-02-12T13:05:23;99987.44;;;9.40;70.02
9187;BME280;7273;48.902;9.410;2023-02-12T13:10:58;99985.34;;;9.42;70.11
9187;BME280;7273;48.902;9.410;2023-02-12T13:13:34;99986.78;;;9.63;69.91
9187;BME280;7273;48.902;9.410;2023-02-12T13:18:59;99979.31;;;9.65;69.89
9187;BME280;7273;48.902;9.410;2023-02-12T13:21:36;99975.91;;;9.69;69.47
9187;BME280;7273;48.902;9.410;2023-02-12T13:29:31;99972.13;;;9.77;69.37
9187;BME280;7273;48.902;9.410;2023-02-12T13:32:09;99962.34;;;9.76;69.77
9187;BME280;7273;48.902;9.410;2023-02-12T13:34:38;99965.72;;;9.89;69.53
9187;BME280;7273;48.902;9.410;2023-02-12T13:39:51;99957.19;;;10.10;69.23
9187;BME280;7273;48.902;9.410;2023-02-12T13:42:47;99957.78;;;10.30;68.26
9187;BME280;7273;48.902;9.410;2023-02-12T13:51:42;99951.34;;;10.43;68.39
9187;BME280;7273;48.902;9.410;2023-02-12T13:57:16;99945.94;;;10.43;68.40
9187;BME280;7273;48.902;9.410;2023-02-12T13:59:44;99945.28;;;10.47;68.37
9187;BME280;7273;48.902;9.410;2023-02-12T14:02:41;99947.38;;;10.45;68.38
9187;BME280;7273;48.902;9.410;2023-02-12T14:05:28;99946.09;;;10.48;68.24
9187;BME280;7273;48.902;9.410;2023-02-12T14:08:04;99945.63;;;10.51;68.20
9187;BME280;7273;48.902;9.410;2023-02-12T14:10:39;99941.88;;;10.52;68.23
9187;BME280;7273;48.902;9.410;2023-02-12T14:13:16;99933.84;;;10.45;67.48
9187;BME280;7273;48.902;9.410;2023-02-12T14:15:44;99939.72;;;10.42;68.29
9187;BME280;7273;48.902;9.410;2023-02-12T14:23:45;99923.75;;;10.52;68.25
9187;BME280;7273;48.902;9.410;2023-02-12T14:26:18;99924.44;;;10.48;68.51
9187;BME280;7273;48.902;9.410;2023-02-12T14:28:55;99923.16;;;10.50;68.28
9187;BME280;7273;48.902;9.410;2023-02-12T14:41:47;99912.13;;;10.52;68.19
9187;BME280;7273;48.902;9.410;2023-02-12T14:46:47;99912.81;;;10.59;68.11
9187;BME280;7273;48.902;9.410;2023-02-12T14:49:38;99902.47;;;10.56;68.01
9187;BME280;7273;48.902;9.410;2023-02-12T14:54:53;99907.88;;;10.56;68.07
9187;BME280;7273;48.902;9.410;2023-02-12T14:57:25;99899.53;;;10.57;67.99
9187;BME280;7273;48.902;9.410;2023-02-12T14:59:55;99907.22;;;10.83;67.44
9187;BME280;7273;48.902;9.410;2023-02-12T15:02:27;99901.25;;;10.81;67.60
9187;BME280;7273;48.902;9.410;2023-02-12T15:04:58;99897.03;;;11.09;67.15
9187;BME280;7273;48.902;9.410;2023-02-12T15:07:32;99903.00;;;10.76;67.45
9187;BME280;7273;48.902;9.410;2023-02-12T15:10:03;99898.78;;;10.80;67.54
9187;BME280;7273;48.902;9.410;2023-02-12T15:12:38;99893.44;;;10.62;68.02
9187;BME280;7273;48.902;9.410;2023-02-12T15:18:20;99895.41;;;10.55;67.99
9187;BME280;7273;48.902;9.410;2023-02-12T15:20:53;99890.34;;;10.47;68.13
9187;BME280;7273;48.902;9.410;2023-02-12T15:23:37;99895.97;;;10.45;67.92
9187;BME280;7273;48.902;9.410;2023-02-12T15:26:04;99892.53;;;10.38;68.30
9187;BME280;7273;48.902;9.410;2023-02-12T15:28:33;99887.69;;;10.29;68.34
9187;BME280;7273;48.902;9.410;2023-02-12T15:31:02;99892.34;;;10.22;68.42
9187;BME280;7273;48.902;9.410;2023-02-12T15:33:33;99893.50;;;10.14;68.56
9187;BME280;7273;48.902;9.410;2023-02-12T15:36:01;99885.16;;;10.16;68.49
9187;BME280;7273;48.902;9.410;2023-02-12T15:38:31;99888.19;;;10.08;68.68
9187;BME280;7273;48.902;9.410;2023-02-12T15:40:59;99886.16;;;10.03;68.73
9187;BME280;7273;48.902;9.410;2023-02-12T15:43:27;99883.66;;;10.02;68.58
9187;BME280;7273;48.902;9.410;2023-02-12T15:45:54;99890.22;;;9.94;68.75
9187;BME280;7273;48.902;9.410;2023-02-12T15:48:29;99885.50;;;9.90;68.88
9187;BME280;7273;48.902;9.410;2023-02-12T15:53:39;99881.44;;;9.81;68.81
9187;BME280;7273;48.902;9.410;2023-02-12T15:56:11;99879.34;;;9.83;68.74
9187;BME280;7273;48.902;9.410;2023-02-12T15:58:50;99880.63;;;9.80;68.47
9187;BME280;7273;48.902;9.410;2023-02-12T16:01:22;99881.44;;;9.81;68.71
9187;BME280;7273;48.902;9.410;2023-02-12T16:03:50;99874.00;;;9.76;68.56